sensor_id;sensor_type;location;lat;lon;timestamp;temperature;humidity
14517;DHT22;7344;50.864;4.362;2022-12-10T00:01:45;1.10;99.90
14517;DHT22;7344;50.864;4.362;2022-12-10T00:04:12;1.00;99.90
14517;DHT22;7344;50.864;4.362;2022-12-10T00:06:39;0.90;99.90
14517;DHT22;7344;50.864;4.362;2022-12-10T00:09:07;0.70;99.90
14517;DHT22;7344;50.864;4.362;2022-12-10T00:11:34;0.70;99.90
14517;DHT22;7344;50.864;4.362;2022-12-10T00:14:00;0.60;99.90
14517;DHT22;7344;50.864;4.362;2022-12-10T00:16:28;0.60;99.90
14517;DHT22;7344;50.864;4.362;2022-12-10T00:18:54;0.60;99.90
14517;DHT22;7344;50.864;4.362;2022-12-10T00:21:23;0.70;99.90
14517;DHT22;7344;50.864;4.362;2022-12-10T00:23:49;0.80;99.90
14517;DHT22;7344;50.864;4.362;2022-12-10T00:26:21;0.80;99.90
14517;DHT22;7344;50.864;4.362;2022-12-10T00:28:48;0.90;99.90
14517;DHT22;7344;50.864;4.362;2022-12-10T00:31:19;0.90;99.90
14517;DHT22;7344;50.864;4.362;2022-12-10T00:33:46;0.90;99.90
14517;DHT22;7344;50.864;4.362;2022-12-10T00:36:24;0.70;99.90
14517;DHT22;7344;50.864;4.362;2022-12-10T00:38:50;0.80;99.90
14517;DHT22;7344;50.864;4.362;2022-12-10T00:41:17;0.90;99.90
14517;DHT22;7344;50.864;4.362;2022-12-10T00:43:43;0.80;99.90
14517;DHT22;7344;50.864;4.362;2022-12-10T00:46:10;0.80;99.90
14517;DHT22;7344;50.864;4.362;2022-12-10T00:48:36;0.60;99.90
14517;DHT22;7344;50.864;4.362;2022-12-10T00:53:36;0.70;99.90
14517;DHT22;7344;50.864;4.362;2022-12-10T00:56:03;0.60;99.90
14517;DHT22;7344;50.864;4.362;2022-12-10T00:58:32;0.60;99.90
14517;DHT22;7344;50.864;4.362;2022-12-10T01:01:19;0.70;99.90
14517;DHT22;7344;50.864;4.362;2022-12-10T01:03:47;0.70;99.90
14517;DHT22;7344;50.864;4.362;2022-12-10T01:06:17;0.70;99.90
14517;DHT22;7344;50.864;4.362;2022-12-10T01:08:45;0.60;99.90
14517;DHT22;7344;50.864;4.362;2022-12-10T01:11:13;0.60;99.90
14517;DHT22;7344;50.864;4.362;2022-12-10T01:13:39;0.50;99.90
14517;DHT22;7344;50.864;4.362;2022-12-10T01:16:07;0.50;99.90
14517;DHT22;7344;50.864;4.362;2022-12-10T01:18:33;0.60;99.90
14517;DHT22;7344;50.864;4.362;2022-12-10T01:21:07;0.60;99.90
14517;DHT22;7344;50.864;4.362;2022-12-10T01:23:35;0.60;99.90
14517;DHT22;7344;50.864;4.362;2022-12-10T01:26:03;0.60;99.90
14517;DHT22;7344;50.864;4.362;2022-12-10T01:28:33;0.70;99.90
14517;DHT22;7344;50.864;4.362;2022-12-10T01:31:10;0.60;99.90
14517;DHT22;7344;50.864;4.362;2022-12-10T01:33:36;0.60;99.90
14517;DHT22;7344;50.864;4.362;2022-12-10T01:36:11;0.60;99.90
14517;DHT22;7344;50.864;4.362;2022-12-10T01:38:38;0.60;99.90
14517;DHT22;7344;50.864;4.362;2022-12-10T01:41:04;0.70;99.90
14517;DHT22;7344;50.864;4.362;2022-12-10T01:46:44;0.60;99.90
14517;DHT22;7344;50.864;4.362;2022-12-10T01:49:13;0.60;99.90
14517;DHT22;7344;50.864;4.362;2022-12-10T01:51:41;0.70;99.90
14517;DHT22;7344;50.864;4.362;2022-12-10T01:54:11;0.90;99.90
14517;DHT22;7344;50.864;4.362;2022-12-10T01:56:41;1.00;99.90
14517;DHT22;7344;50.864;4.362;2022-12-10T01:59:08;1.00;99.90
14517;DHT22;7344;50.864;4.362;2022-12-10T02:01:53;1.00;99.90
14517;DHT22;7344;50.864;4.362;2022-12-10T02:04:57;1.10;99.90
14517;DHT22;7344;50.864;4.362;2022-12-10T02:12:49;1.00;99.90
14517;DHT22;7344;50.864;4.362;2022-12-10T02:15:20;1.00;99.90
14517;DHT22;7344;50.864;4.362;2022-12-10T02:17:55;0.90;99.90
14517;DHT22;7344;50.864;4.362;2022-12-10T02:23:00;1.00;99.90
14517;DHT22;7344;50.864;4.362;2022-12-10T02:30:53;0.70;99.90
14517;DHT22;7344;50.864;4.362;2022-12-10T02:33:20;0.70;99.90
14517;DHT22;7344;50.864;4.362;2022-12-10T02:35:50;0.70;99.90
14517;DHT22;7344;50.864;4.362;2022-12-10T02:38:24;0.70;99.90
14517;DHT22;7344;50.864;4.362;2022-12-10T02:40:55;0.70;99.90
14517;DHT22;7344;50.864;4.362;2022-12-10T02:43:23;0.80;99.90
14517;DHT22;7344;50.864;4.362;2022-12-10T02:45:50;0.80;99.90
14517;DHT22;7344;50.864;4.362;2022-12-10T02:48:17;0.80;99.90
14517;DHT22;7344;50.864;4.362;2022-12-10T02:50:44;0.80;99.90
14517;DHT22;7344;50.864;4.362;2022-12-10T02:53:10;0.60;99.90
14517;DHT22;7344;50.864;4.362;2022-12-10T02:56:05;0.70;99.90
14517;DHT22;7344;50.864;4.362;2022-12-10T02:58:40;0.70;99.90
14517;DHT22;7344;50.864;4.362;2022-12-10T03:01:23;0.60;99.90
14517;DHT22;7344;50.864;4.362;2022-12-10T03:04:00;0.50;99.90
14517;DHT22;7344;50.864;4.362;2022-12-10T03:06:39;0.50;99.90
14517;DHT22;7344;50.864;4.362;2022-12-10T03:09:15;0.50;99.90
14517;DHT22;7344;50.864;4.362;2022-12-10T03:11:43;0.60;99.90
14517;DHT22;7344;50.864;4.362;2022-12-10T03:14:21;0.60;99.90
14517;DHT22;7344;50.864;4.362;2022-12-10T03:16:55;0.70;99.90
14517;DHT22;7344;50.864;4.362;2022-12-10T03:19:26;0.50;99.90
14517;DHT22;7344;50.864;4.362;2022-12-10T03:21:54;0.40;99.90
14517;DHT22;7344;50.864;4.362;2022-12-10T03:24:21;0.40;99.90
14517;DHT22;7344;50.864;4.362;2022-12-10T03:26:48;0.40;99.90
14517;DHT22;7344;50.864;4.362;2022-12-10T03:29:19;0.50;99.90
14517;DHT22;7344;50.864;4.362;2022-12-10T03:31:48;0.50;99.90
14517;DHT22;7344;50.864;4.362;2022-12-10T03:34:15;0.40;99.90
14517;DHT22;7344;50.864;4.362;2022-12-10T03:36:41;0.50;99.90
14517;DHT22;7344;50.864;4.362;2022-12-10T03:39:07;0.40;99.90
14517;DHT22;7344;50.864;4.362;2022-12-10T03:41:33;0.40;99.90
14517;DHT22;7344;50.864;4.362;2022-12-10T03:44:00;0.40;99.90
14517;DHT22;7344;50.864;4.362;2022-12-10T03:46:27;0.50;99.90
14517;DHT22;7344;50.864;4.362;2022-12-10T03:48:54;0.40;99.90
14517;DHT22;7344;50.864;4.362;2022-12-10T03:51:20;0.40;99.90
14517;DHT22;7344;50.864;4.362;2022-12-10T03:53:46;0.40;99.90
14517;DHT22;7344;50.864;4.362;2022-12-10T03:56:14;0.30;99.90
14517;DHT22;7344;50.864;4.362;2022-12-10T03:58:39;0.50;99.90
14517;DHT22;7344;50.864;4.362;2022-12-10T04:01:05;0.40;99.90
14517;DHT22;7344;50.864;4.362;2022-12-10T04:03:34;0.40;99.90
14517;DHT22;7344;50.864;4.362;2022-12-10T04:06:02;0.50;99.90
14517;DHT22;7344;50.864;4.362;2022-12-10T04:08:28;0.40;99.90
14517;DHT22;7344;50.864;4.362;2022-12-10T04:10:53;0.40;99.90
14517;DHT22;7344;50.864;4.362;2022-12-10T04:13:19;0.40;99.90
14517;DHT22;7344;50.864;4.362;2022-12-10T04:16:03;0.40;99.90
14517;DHT22;7344;50.864;4.362;2022-12-10T04:18:47;0.40;99.90
14517;DHT22;7344;50.864;4.362;2022-12-10T04:21:13;0.40;99.90
14517;DHT22;7344;50.864;4.362;2022-12-10T04:23:57;0.40;99.90
14517;DHT22;7344;50.864;4.362;2022-12-10T04:26:41;0.50;99.90
14517;DHT22;7344;50.864;4.362;2022-12-10T04:29:20;0.60;99.90
14517;DHT22;7344;50.864;4.362;2022-12-10T04:31:46;0.50;99.90
14517;DHT22;7344;50.864;4.362;2022-12-10T04:34:11;0.60;99.90
14517;DHT22;7344;50.864;4.362;2022-12-10T04:36:37;0.60;99.90
14517;DHT22;7344;50.864;4.362;2022-12-10T04:39:03;0.60;99.90
14517;DHT22;7344;50.864;4.362;2022-12-10T04:41:29;0.50;99.90
14517;DHT22;7344;50.864;4.362;2022-12-10T04:43:54;0.50;99.90
14517;DHT22;7344;50.864;4.362;2022-12-10T04:46:20;0.60;99.90
14517;DHT22;7344;50.864;4.362;2022-12-10T04:48:46;0.50;99.90
14517;DHT22;7344;50.864;4.362;2022-12-10T04:51:12;0.50;99.90
14517;DHT22;7344;50.864;4.362;2022-12-10T04:53:37;0.60;99.90
14517;DHT22;7344;50.864;4.362;2022-12-10T04:56:03;0.60;99.90
14517;DHT22;7344;50.864;4.362;2022-12-10T04:58:31;0.60;99.90
14517;DHT22;7344;50.864;4.362;2022-12-10T05:01:04;0.70;99.90
14517;DHT22;7344;50.864;4.362;2022-12-10T05:03:31;0.60;99.90
14517;DHT22;7344;50.864;4.362;2022-12-10T05:06:01;0.60;99.90
14517;DHT22;7344;50.864;4.362;2022-12-10T05:08:27;0.70;99.90
14517;DHT22;7344;50.864;4.362;2022-12-10T05:10:53;0.70;99.90
14517;DHT22;7344;50.864;4.362;2022-12-10T05:13:18;0.60;99.90
14517;DHT22;7344;50.864;4.362;2022-12-10T05:15:44;0.50;99.90
14517;DHT22;7344;50.864;4.362;2022-12-10T05:18:09;0.40;99.90
14517;DHT22;7344;50.864;4.362;2022-12-10T05:20:35;0.40;99.90
14517;DHT22;7344;50.864;4.362;2022-12-10T05:23:00;0.40;99.90
14517;DHT22;7344;50.864;4.362;2022-12-10T05:25:46;0.40;99.90
14517;DHT22;7344;50.864;4.362;2022-12-10T05:28:22;0.40;99.90
14517;DHT22;7344;50.864;4.362;2022-12-10T05:30:48;0.40;99.90
14517;DHT22;7344;50.864;4.362;2022-12-10T05:33:13;0.40;99.90
14517;DHT22;7344;50.864;4.362;2022-12-10T05:35:40;0.40;99.90
14517;DHT22;7344;50.864;4.362;2022-12-10T05:38:06;0.40;99.90
14517;DHT22;7344;50.864;4.362;2022-12-10T05:40:36;0.40;99.90
14517;DHT22;7344;50.864;4.362;2022-12-10T05:43:02;0.50;99.90
14517;DHT22;7344;50.864;4.362;2022-12-10T05:45:28;0.50;99.90
14517;DHT22;7344;50.864;4.362;2022-12-10T05:47:53;0.60;99.90
14517;DHT22;7344;50.864;4.362;2022-12-10T05:50:19;0.30;99.90
14517;DHT22;7344;50.864;4.362;2022-12-10T05:52:44;0.30;99.90
14517;DHT22;7344;50.864;4.362;2022-12-10T05:55:10;0.20;99.90
14517;DHT22;7344;50.864;4.362;2022-12-10T05:57:36;0.20;99.90
14517;DHT22;7344;50.864;4.362;2022-12-10T06:00:04;0.30;99.90
14517;DHT22;7344;50.864;4.362;2022-12-10T06:02:32;0.30;99.90
14517;DHT22;7344;50.864;4.362;2022-12-10T06:04:58;0.30;99.90
14517;DHT22;7344;50.864;4.362;2022-12-10T06:07:24;0.30;99.90
14517;DHT22;7344;50.864;4.362;2022-12-10T06:09:49;0.20;99.90
14517;DHT22;7344;50.864;4.362;2022-12-10T06:12:15;0.20;99.90
14517;DHT22;7344;50.864;4.362;2022-12-10T06:14:40;0.10;99.90
14517;DHT22;7344;50.864;4.362;2022-12-10T06:17:06;0.10;99.90
14517;DHT22;7344;50.864;4.362;2022-12-10T06:19:31;0.00;99.90
14517;DHT22;7344;50.864;4.362;2022-12-10T06:21:57;0.00;99.90
14517;DHT22;7344;50.864;4.362;2022-12-10T06:24:24;0.00;99.90
14517;DHT22;7344;50.864;4.362;2022-12-10T06:26:49;0.00;99.90
14517;DHT22;7344;50.864;4.362;2022-12-10T06:29:16;0.00;99.90
14517;DHT22;7344;50.864;4.362;2022-12-10T06:31:42;-0.10;99.90
14517;DHT22;7344;50.864;4.362;2022-12-10T06:34:07;0.00;99.90
14517;DHT22;7344;50.864;4.362;2022-12-10T06:36:33;0.20;99.90
14517;DHT22;7344;50.864;4.362;2022-12-10T06:38:59;0.20;99.90
14517;DHT22;7344;50.864;4.362;2022-12-10T06:41:25;0.10;99.90
14517;DHT22;7344;50.864;4.362;2022-12-10T06:43:50;0.10;99.90
14517;DHT22;7344;50.864;4.362;2022-12-10T06:46:18;0.20;99.90
14517;DHT22;7344;50.864;4.362;2022-12-10T06:48:44;0.40;99.90
14517;DHT22;7344;50.864;4.362;2022-12-10T06:51:12;0.40;99.90
14517;DHT22;7344;50.864;4.362;2022-12-10T06:53:38;0.10;99.90
14517;DHT22;7344;50.864;4.362;2022-12-10T06:56:05;0.10;99.90
14517;DHT22;7344;50.864;4.362;2022-12-10T06:58:32;0.10;99.90
14517;DHT22;7344;50.864;4.362;2022-12-10T07:01:04;0.10;99.90
14517;DHT22;7344;50.864;4.362;2022-12-10T07:03:30;0.10;99.90
14517;DHT22;7344;50.864;4.362;2022-12-10T07:05:58;0.10;99.90
14517;DHT22;7344;50.864;4.362;2022-12-10T07:08:23;0.10;99.90
14517;DHT22;7344;50.864;4.362;2022-12-10T07:10:49;0.20;99.90
14517;DHT22;7344;50.864;4.362;2022-12-10T07:13:14;0.20;99.90
14517;DHT22;7344;50.864;4.362;2022-12-10T07:15:40;0.20;99.90
14517;DHT22;7344;50.864;4.362;2022-12-10T07:18:06;0.20;99.90
14517;DHT22;7344;50.864;4.362;2022-12-10T07:20:31;0.20;99.90
14517;DHT22;7344;50.864;4.362;2022-12-10T07:22:57;0.20;99.90
14517;DHT22;7344;50.864;4.362;2022-12-10T07:25:22;0.10;99.90
14517;DHT22;7344;50.864;4.362;2022-12-10T07:27:48;0.10;99.90
14517;DHT22;7344;50.864;4.362;2022-12-10T07:30:14;0.00;99.90
14517;DHT22;7344;50.864;4.362;2022-12-10T07:32:39;0.00;99.90
14517;DHT22;7344;50.864;4.362;2022-12-10T07:35:05;0.00;99.90
14517;DHT22;7344;50.864;4.362;2022-12-10T07:37:31;-0.20;99.90
14517;DHT22;7344;50.864;4.362;2022-12-10T07:39:56;-0.30;99.90
14517;DHT22;7344;50.864;4.362;2022-12-10T07:42:22;-0.20;99.90
14517;DHT22;7344;50.864;4.362;2022-12-10T07:44:48;-0.30;99.90
14517;DHT22;7344;50.864;4.362;2022-12-10T07:47:14;-0.20;99.90
14517;DHT22;7344;50.864;4.362;2022-12-10T07:49:39;-0.20;99.90
14517;DHT22;7344;50.864;4.362;2022-12-10T07:52:05;-0.20;99.90
14517;DHT22;7344;50.864;4.362;2022-12-10T07:54:31;-0.10;99.90
14517;DHT22;7344;50.864;4.362;2022-12-10T07:56:56;-0.10;99.90
14517;DHT22;7344;50.864;4.362;2022-12-10T07:59:22;-0.10;99.90
14517;DHT22;7344;50.864;4.362;2022-12-10T08:01:47;0.10;99.90
14517;DHT22;7344;50.864;4.362;2022-12-10T08:04:14;0.00;99.90
14517;DHT22;7344;50.864;4.362;2022-12-10T08:06:40;0.00;99.90
14517;DHT22;7344;50.864;4.362;2022-12-10T08:09:06;0.10;99.90
14517;DHT22;7344;50.864;4.362;2022-12-10T08:11:32;0.00;99.90
14517;DHT22;7344;50.864;4.362;2022-12-10T08:13:58;0.10;99.90
14517;DHT22;7344;50.864;4.362;2022-12-10T08:16:25;0.20;99.90
14517;DHT22;7344;50.864;4.362;2022-12-10T08:18:51;0.10;99.90
14517;DHT22;7344;50.864;4.362;2022-12-10T08:21:19;0.10;99.90
14517;DHT22;7344;50.864;4.362;2022-12-10T08:23:45;0.10;99.90
14517;DHT22;7344;50.864;4.362;2022-12-10T08:26:14;-0.10;99.90
14517;DHT22;7344;50.864;4.362;2022-12-10T08:28:40;-0.10;99.90
14517;DHT22;7344;50.864;4.362;2022-12-10T08:31:07;-0.20;99.90
14517;DHT22;7344;50.864;4.362;2022-12-10T08:33:35;-0.10;99.90
14517;DHT22;7344;50.864;4.362;2022-12-10T08:36:02;0.00;99.90
14517;DHT22;7344;50.864;4.362;2022-12-10T08:38:27;0.20;99.90
14517;DHT22;7344;50.864;4.362;2022-12-10T08:40:53;0.20;99.90
14517;DHT22;7344;50.864;4.362;2022-12-10T08:43:19;0.10;99.90
14517;DHT22;7344;50.864;4.362;2022-12-10T08:45:44;0.10;99.90
14517;DHT22;7344;50.864;4.362;2022-12-10T08:48:10;0.10;99.90
14517;DHT22;7344;50.864;4.362;2022-12-10T08:50:36;0.10;99.90
14517;DHT22;7344;50.864;4.362;2022-12-10T08:53:02;0.10;99.90
14517;DHT22;7344;50.864;4.362;2022-12-10T08:55:28;0.10;99.90
14517;DHT22;7344;50.864;4.362;2022-12-10T08:57:54;0.20;99.90
14517;DHT22;7344;50.864;4.362;2022-12-10T09:00:19;0.30;99.90
14517;DHT22;7344;50.864;4.362;2022-12-10T09:02:45;0.40;99.90
14517;DHT22;7344;50.864;4.362;2022-12-10T09:05:11;0.40;99.90
14517;DHT22;7344;50.864;4.362;2022-12-10T09:07:37;0.30;99.90
14517;DHT22;7344;50.864;4.362;2022-12-10T09:10:04;0.40;99.90
14517;DHT22;7344;50.864;4.362;2022-12-10T09:12:29;0.50;99.90
14517;DHT22;7344;50.864;4.362;2022-12-10T09:14:55;0.50;99.90
14517;DHT22;7344;50.864;4.362;2022-12-10T09:17:21;0.50;99.90
14517;DHT22;7344;50.864;4.362;2022-12-10T09:19:48;0.60;99.90
14517;DHT22;7344;50.864;4.362;2022-12-10T09:22:14;0.60;99.90
14517;DHT22;7344;50.864;4.362;2022-12-10T09:24:39;0.50;99.90
14517;DHT22;7344;50.864;4.362;2022-12-10T09:27:05;0.60;99.90
14517;DHT22;7344;50.864;4.362;2022-12-10T09:29:30;0.60;99.90
14517;DHT22;7344;50.864;4.362;2022-12-10T09:31:56;0.60;99.90
14517;DHT22;7344;50.864;4.362;2022-12-10T09:34:21;0.40;99.90
14517;DHT22;7344;50.864;4.362;2022-12-10T09:36:47;0.40;99.90
14517;DHT22;7344;50.864;4.362;2022-12-10T09:39:14;0.70;99.90
14517;DHT22;7344;50.864;4.362;2022-12-10T09:41:53;0.80;99.90
14517;DHT22;7344;50.864;4.362;2022-12-10T09:44:31;0.90;99.90
14517;DHT22;7344;50.864;4.362;2022-12-10T09:47:02;0.80;99.90
14517;DHT22;7344;50.864;4.362;2022-12-10T09:52:19;0.90;99.90
14517;DHT22;7344;50.864;4.362;2022-12-10T09:54:48;0.80;99.90
14517;DHT22;7344;50.864;4.362;2022-12-10T09:57:38;0.70;99.90
14517;DHT22;7344;50.864;4.362;2022-12-10T10:03:00;0.70;99.90
14517;DHT22;7344;50.864;4.362;2022-12-10T10:05:29;0.80;99.90
14517;DHT22;7344;50.864;4.362;2022-12-10T10:07:57;0.90;99.90
14517;DHT22;7344;50.864;4.362;2022-12-10T10:10:29;1.10;99.90
14517;DHT22;7344;50.864;4.362;2022-12-10T10:15:35;1.20;99.90
14517;DHT22;7344;50.864;4.362;2022-12-10T10:18:25;1.10;99.90
14517;DHT22;7344;50.864;4.362;2022-12-10T10:20:55;1.30;99.90
14517;DHT22;7344;50.864;4.362;2022-12-10T10:23:21;1.20;99.90
14517;DHT22;7344;50.864;4.362;2022-12-10T10:25:47;1.30;99.90
14517;DHT22;7344;50.864;4.362;2022-12-10T10:28:20;1.30;99.90
14517;DHT22;7344;50.864;4.362;2022-12-10T10:30:46;1.30;99.90
14517;DHT22;7344;50.864;4.362;2022-12-10T10:33:13;1.30;99.90
14517;DHT22;7344;50.864;4.362;2022-12-10T10:35:58;1.50;99.90
14517;DHT22;7344;50.864;4.362;2022-12-10T10:38:28;1.60;99.90
14517;DHT22;7344;50.864;4.362;2022-12-10T10:41:00;1.80;99.90
14517;DHT22;7344;50.864;4.362;2022-12-10T10:43:32;1.80;99.90
14517;DHT22;7344;50.864;4.362;2022-12-10T10:48:27;2.00;99.90
14517;DHT22;7344;50.864;4.362;2022-12-10T10:53:42;1.70;99.90
14517;DHT22;7344;50.864;4.362;2022-12-10T10:56:28;1.70;99.90
14517;DHT22;7344;50.864;4.362;2022-12-10T10:59:04;1.60;99.90
14517;DHT22;7344;50.864;4.362;2022-12-10T11:01:51;1.70;99.90
14517;DHT22;7344;50.864;4.362;2022-12-10T11:04:44;1.80;99.90
14517;DHT22;7344;50.864;4.362;2022-12-10T11:07:38;1.70;99.90
14517;DHT22;7344;50.864;4.362;2022-12-10T11:10:19;1.80;99.90
14517;DHT22;7344;50.864;4.362;2022-12-10T11:13:07;2.00;99.90
14517;DHT22;7344;50.864;4.362;2022-12-10T11:15:34;2.30;99.90
14517;DHT22;7344;50.864;4.362;2022-12-10T11:18:08;2.30;99.90
14517;DHT22;7344;50.864;4.362;2022-12-10T11:23:28;2.10;99.90
14517;DHT22;7344;50.864;4.362;2022-12-10T11:42:15;2.00;99.90
14517;DHT22;7344;50.864;4.362;2022-12-10T11:48:12;2.00;99.90
14517;DHT22;7344;50.864;4.362;2022-12-10T11:50:47;2.00;99.90
14517;DHT22;7344;50.864;4.362;2022-12-10T12:03:35;2.20;99.90
14517;DHT22;7344;50.864;4.362;2022-12-10T12:06:22;2.30;99.90
14517;DHT22;7344;50.864;4.362;2022-12-10T12:09:20;2.30;99.90
14517;DHT22;7344;50.864;4.362;2022-12-10T12:14:39;2.40;99.90
14517;DHT22;7344;50.864;4.362;2022-12-10T12:17:23;2.40;99.90
14517;DHT22;7344;50.864;4.362;2022-12-10T12:22:27;2.40;99.90
14517;DHT22;7344;50.864;4.362;2022-12-10T12:24:59;2.50;99.90
14517;DHT22;7344;50.864;4.362;2022-12-10T12:27:33;2.50;99.90
14517;DHT22;7344;50.864;4.362;2022-12-10T12:30:14;2.60;99.90
14517;DHT22;7344;50.864;4.362;2022-12-10T12:38:32;2.40;99.90
14517;DHT22;7344;50.864;4.362;2022-12-10T12:41:05;2.30;99.90
14517;DHT22;7344;50.864;4.362;2022-12-10T12:46:02;2.50;99.90
14517;DHT22;7344;50.864;4.362;2022-12-10T12:51:29;2.50;99.90
14517;DHT22;7344;50.864;4.362;2022-12-10T12:53:57;2.50;99.90
14517;DHT22;7344;50.864;4.362;2022-12-10T12:59:17;2.30;99.90
14517;DHT22;7344;50.864;4.362;2022-12-10T13:01:57;2.30;99.90
14517;DHT22;7344;50.864;4.362;2022-12-10T13:04:25;2.20;99.90
14517;DHT22;7344;50.864;4.362;2022-12-10T13:10:25;2.10;99.90
14517;DHT22;7344;50.864;4.362;2022-12-10T13:12:45;2.10;99.90
14517;DHT22;7344;50.864;4.362;2022-12-10T13:15:36;2.00;99.90
14517;DHT22;7344;50.864;4.362;2022-12-10T13:23:51;2.10;99.90
14517;DHT22;7344;50.864;4.362;2022-12-10T13:26:28;2.20;99.90
14517;DHT22;7344;50.864;4.362;2022-12-10T13:28:56;2.30;99.90
14517;DHT22;7344;50.864;4.362;2022-12-10T13:31:33;2.40;99.90
14517;DHT22;7344;50.864;4.362;2022-12-10T13:45:04;2.60;99.90
14517;DHT22;7344;50.864;4.362;2022-12-10T14:04:01;2.40;99.90
14517;DHT22;7344;50.864;4.362;2022-12-10T14:06:36;2.40;99.90
14517;DHT22;7344;50.864;4.362;2022-12-10T14:09:12;2.30;99.90
14517;DHT22;7344;50.864;4.362;2022-12-10T14:12:13;2.20;99.90
14517;DHT22;7344;50.864;4.362;2022-12-10T14:14:44;2.30;99.90
14517;DHT22;7344;50.864;4.362;2022-12-10T14:17:14;2.50;99.90
14517;DHT22;7344;50.864;4.362;2022-12-10T14:19:42;2.50;99.90
14517;DHT22;7344;50.864;4.362;2022-12-10T14:22:15;2.50;99.90
14517;DHT22;7344;50.864;4.362;2022-12-10T14:24:42;2.60;99.90
14517;DHT22;7344;50.864;4.362;2022-12-10T14:27:20;2.50;99.90
14517;DHT22;7344;50.864;4.362;2022-12-10T14:29:57;2.50;99.90
14517;DHT22;7344;50.864;4.362;2022-12-10T14:32:38;2.60;99.90
14517;DHT22;7344;50.864;4.362;2022-12-10T14:35:06;2.50;99.90
14517;DHT22;7344;50.864;4.362;2022-12-10T14:37:36;2.70;99.90
14517;DHT22;7344;50.864;4.362;2022-12-10T14:40:05;2.80;99.90
14517;DHT22;7344;50.864;4.362;2022-12-10T14:42:31;2.90;99.90
14517;DHT22;7344;50.864;4.362;2022-12-10T14:45:03;2.70;99.90
14517;DHT22;7344;50.864;4.362;2022-12-10T14:47:36;2.70;99.90
14517;DHT22;7344;50.864;4.362;2022-12-10T14:50:05;2.50;99.90
14517;DHT22;7344;50.864;4.362;2022-12-10T14:52:33;2.60;99.90
14517;DHT22;7344;50.864;4.362;2022-12-10T14:55:01;2.60;99.90
14517;DHT22;7344;50.864;4.362;2022-12-10T15:02:34;2.60;99.90
14517;DHT22;7344;50.864;4.362;2022-12-10T15:05:02;2.70;99.90
14517;DHT22;7344;50.864;4.362;2022-12-10T15:07:34;2.60;99.90
14517;DHT22;7344;50.864;4.362;2022-12-10T15:10:05;2.50;99.90
14517;DHT22;7344;50.864;4.362;2022-12-10T15:12:46;2.50;99.90
14517;DHT22;7344;50.864;4.362;2022-12-10T15:15:37;2.60;99.90
14517;DHT22;7344;50.864;4.362;2022-12-10T15:18:13;2.50;99.90
14517;DHT22;7344;50.864;4.362;2022-12-10T15:25:58;2.40;99.90
14517;DHT22;7344;50.864;4.362;2022-12-10T15:28:37;2.40;99.90
14517;DHT22;7344;50.864;4.362;2022-12-10T15:33:56;2.50;99.90
14517;DHT22;7344;50.864;4.362;2022-12-10T15:36:40;2.50;99.90
14517;DHT22;7344;50.864;4.362;2022-12-10T15:41:58;2.50;99.90
14517;DHT22;7344;50.864;4.362;2022-12-10T15:49:29;2.50;99.90
14517;DHT22;7344;50.864;4.362;2022-12-10T15:51:56;2.40;99.90
14517;DHT22;7344;50.864;4.362;2022-12-10T15:54:26;2.50;99.90
14517;DHT22;7344;50.864;4.362;2022-12-10T15:56:52;2.50;99.90
14517;DHT22;7344;50.864;4.362;2022-12-10T15:59:18;2.40;99.90
14517;DHT22;7344;50.864;4.362;2022-12-10T16:01:45;2.40;99.90
14517;DHT22;7344;50.864;4.362;2022-12-10T16:04:11;2.40;99.90
14517;DHT22;7344;50.864;4.362;2022-12-10T16:06:37;2.50;99.90
14517;DHT22;7344;50.864;4.362;2022-12-10T16:09:02;2.50;99.90
14517;DHT22;7344;50.864;4.362;2022-12-10T16:11:28;2.50;99.90
14517;DHT22;7344;50.864;4.362;2022-12-10T16:13:55;2.50;99.90
14517;DHT22;7344;50.864;4.362;2022-12-10T16:16:23;2.50;99.90
14517;DHT22;7344;50.864;4.362;2022-12-10T16:18:49;2.50;99.90
14517;DHT22;7344;50.864;4.362;2022-12-10T16:21:15;2.60;99.90
14517;DHT22;7344;50.864;4.362;2022-12-10T16:23:40;2.60;99.90
14517;DHT22;7344;50.864;4.362;2022-12-10T16:26:20;2.60;99.90
14517;DHT22;7344;50.864;4.362;2022-12-10T16:28:47;2.60;99.90
14517;DHT22;7344;50.864;4.362;2022-12-10T16:31:19;2.50;99.90
14517;DHT22;7344;50.864;4.362;2022-12-10T16:33:45;2.40;99.90
14517;DHT22;7344;50.864;4.362;2022-12-10T16:36:12;2.40;99.90
14517;DHT22;7344;50.864;4.362;2022-12-10T16:38:38;2.30;99.90
14517;DHT22;7344;50.864;4.362;2022-12-10T16:41:18;2.40;99.90
14517;DHT22;7344;50.864;4.362;2022-12-10T16:43:43;2.30;99.90
14517;DHT22;7344;50.864;4.362;2022-12-10T16:46:10;2.30;99.90
14517;DHT22;7344;50.864;4.362;2022-12-10T16:48:36;2.40;99.90
14517;DHT22;7344;50.864;4.362;2022-12-10T16:51:02;2.50;99.90
14517;DHT22;7344;50.864;4.362;2022-12-10T16:53:29;2.60;99.90
14517;DHT22;7344;50.864;4.362;2022-12-10T16:55:57;2.50;99.90
14517;DHT22;7344;50.864;4.362;2022-12-10T16:58:23;2.40;99.90
14517;DHT22;7344;50.864;4.362;2022-12-10T17:00:51;2.40;99.90
14517;DHT22;7344;50.864;4.362;2022-12-10T17:03:19;2.40;99.90
14517;DHT22;7344;50.864;4.362;2022-12-10T17:05:59;2.40;99.90
14517;DHT22;7344;50.864;4.362;2022-12-10T17:08:26;2.30;99.90
14517;DHT22;7344;50.864;4.362;2022-12-10T17:10:53;2.30;99.90
14517;DHT22;7344;50.864;4.362;2022-12-10T17:13:39;2.30;99.90
14517;DHT22;7344;50.864;4.362;2022-12-10T17:16:06;2.30;99.90
14517;DHT22;7344;50.864;4.362;2022-12-10T17:18:33;2.30;99.90
14517;DHT22;7344;50.864;4.362;2022-12-10T17:20:59;2.40;99.90
14517;DHT22;7344;50.864;4.362;2022-12-10T17:23:25;2.50;99.90
14517;DHT22;7344;50.864;4.362;2022-12-10T17:25:50;2.50;99.90
14517;DHT22;7344;50.864;4.362;2022-12-10T17:28:19;2.50;99.90
14517;DHT22;7344;50.864;4.362;2022-12-10T17:30:45;2.50;99.90
14517;DHT22;7344;50.864;4.362;2022-12-10T17:33:12;2.60;99.90
14517;DHT22;7344;50.864;4.362;2022-12-10T17:35:41;2.60;99.90
14517;DHT22;7344;50.864;4.362;2022-12-10T17:38:14;2.50;99.90
14517;DHT22;7344;50.864;4.362;2022-12-10T17:40:40;2.50;99.90
14517;DHT22;7344;50.864;4.362;2022-12-10T17:43:05;2.40;99.90
14517;DHT22;7344;50.864;4.362;2022-12-10T17:45:32;2.60;99.90
14517;DHT22;7344;50.864;4.362;2022-12-10T17:47:57;2.60;99.90
14517;DHT22;7344;50.864;4.362;2022-12-10T17:50:29;2.60;99.90
14517;DHT22;7344;50.864;4.362;2022-12-10T17:52:56;2.70;99.90
14517;DHT22;7344;50.864;4.362;2022-12-10T17:55:23;2.60;99.90
14517;DHT22;7344;50.864;4.362;2022-12-10T17:57:49;2.70;99.90
14517;DHT22;7344;50.864;4.362;2022-12-10T18:00:18;2.70;99.90
14517;DHT22;7344;50.864;4.362;2022-12-10T18:02:44;2.60;99.90
14517;DHT22;7344;50.864;4.362;2022-12-10T18:05:10;2.60;99.90
14517;DHT22;7344;50.864;4.362;2022-12-10T18:07:35;2.70;99.90
14517;DHT22;7344;50.864;4.362;2022-12-10T18:10:04;2.80;99.90
14517;DHT22;7344;50.864;4.362;2022-12-10T18:12:32;2.80;99.90
14517;DHT22;7344;50.864;4.362;2022-12-10T18:14:57;2.80;99.90
14517;DHT22;7344;50.864;4.362;2022-12-10T18:17:23;2.80;99.90
14517;DHT22;7344;50.864;4.362;2022-12-10T18:19:49;2.80;99.90
14517;DHT22;7344;50.864;4.362;2022-12-10T18:22:16;2.90;99.90
14517;DHT22;7344;50.864;4.362;2022-12-10T18:24:41;2.90;99.90
14517;DHT22;7344;50.864;4.362;2022-12-10T18:27:10;2.90;99.90
14517;DHT22;7344;50.864;4.362;2022-12-10T18:29:36;3.00;99.90
14517;DHT22;7344;50.864;4.362;2022-12-10T18:32:02;3.00;99.90
14517;DHT22;7344;50.864;4.362;2022-12-10T18:34:28;3.00;99.90
14517;DHT22;7344;50.864;4.362;2022-12-10T18:36:53;3.00;99.90
14517;DHT22;7344;50.864;4.362;2022-12-10T18:39:27;3.00;99.90